Terminal Aerodrome Forecast
Issued by NWS

Home | Current Version | Previous Version | Text Only | Print | Product List | Glossary On
Versions: 1 2 3 4 5 6 7 8 9 10 11 12 13 14 15 16 17 18
000
FTUS43 KLSX 261700
TAFSUS
TAF
KSUS 261721Z 2618/2718 20005KT P6SM VCSH BKN020
     FM262000 20007KT P6SM BKN030
     FM270000 VRB04KT P6SM SCT030
     FM270400 31008KT P6SM BKN025=

USA.gov is the U.S. government's official web portal to all federal, state and local government web resources and services.